createdAt,value
2022-08-14T00:01:50.223Z,68.69
2022-08-14T00:04:34.436Z,69.61
2022-08-14T00:07:06.077Z,69.22
2022-08-14T00:09:34.567Z,69.07
2022-08-14T00:12:24.268Z,69.62
2022-08-14T00:14:54.881Z,70.42
2022-08-14T00:17:22.608Z,70.93
2022-08-14T00:23:36.174Z,72.98
2022-08-14T00:26:06.055Z,72.74
2022-08-14T00:28:36.042Z,72.71
2022-08-14T00:31:04.992Z,72.67
2022-08-14T00:33:51.423Z,72.56
2022-08-14T00:36:39.095Z,72.31
2022-08-14T00:39:06.537Z,72.76
2022-08-14T00:41:36.081Z,74.29
2022-08-14T00:44:05.434Z,74.34
2022-08-14T00:46:33.368Z,73.64
2022-08-14T00:49:00.777Z,73.82
2022-08-14T00:51:37.702Z,73.76
2022-08-14T00:54:11.007Z,73.78
2022-08-14T00:56:49.108Z,73.48
2022-08-14T00:59:16.190Z,73.76
2022-08-14T01:01:43.093Z,73.95
2022-08-14T01:04:51.618Z,74.65
2022-08-14T01:06:58.647Z,75.81
2022-08-14T01:09:26.618Z,74.87
2022-08-14T01:11:57.167Z,75.81
2022-08-14T01:14:29.930Z,75.52
2022-08-14T01:16:56.870Z,75.44
2022-08-14T01:19:43.309Z,74.98
2022-08-14T01:22:12.562Z,75.61
2022-08-14T01:24:39.577Z,74.81
2022-08-14T01:27:07.314Z,74.51
2022-08-14T01:29:59.005Z,74.24
2022-08-14T01:32:24.666Z,73.96
2022-08-14T01:35:19.905Z,73.86
2022-08-14T01:37:44.649Z,73.84
2022-08-14T01:40:15.513Z,73.76
2022-08-14T01:42:46.506Z,73.52
2022-08-14T01:45:17.762Z,73.43
2022-08-14T01:47:51.831Z,73.56
2022-08-14T01:50:29.609Z,73.44
2022-08-14T01:52:59.618Z,73.80
2022-08-14T01:55:31.690Z,73.50
2022-08-14T01:58:01.884Z,73.66
2022-08-14T02:00:56.856Z,73.54
2022-08-14T02:03:53.477Z,73.76
2022-08-14T02:06:32.885Z,73.45
2022-08-14T02:09:02.633Z,73.50
2022-08-14T02:11:38.951Z,73.61
2022-08-14T02:14:08.665Z,73.67
2022-08-14T02:16:41.584Z,73.88
2022-08-14T02:19:14.797Z,73.83
2022-08-14T02:21:49.098Z,74.41
2022-08-14T02:24:40.304Z,74.27
2022-08-14T02:28:24.027Z,73.77
2022-08-14T02:30:03.250Z,73.73
2022-08-14T02:32:37.516Z,73.91
2022-08-14T02:35:12.753Z,74.01
2022-08-14T02:37:47.877Z,74.23
2022-08-14T02:40:32.507Z,74.06
2022-08-14T02:43:07.752Z,74.31
2022-08-14T02:45:44.639Z,74.03
2022-08-14T02:49:03.907Z,73.99
2022-08-14T02:51:10.905Z,73.62
2022-08-14T02:53:42.423Z,73.85
2022-08-14T02:56:30.164Z,73.92
2022-08-14T02:59:05.433Z,74.89
2022-08-14T03:01:43.114Z,74.86
2022-08-14T03:04:15.278Z,74.60
2022-08-14T03:06:56.807Z,74.60
2022-08-14T03:10:25.633Z,74.46
2022-08-14T03:12:31.758Z,75.10
2022-08-14T03:15:19.731Z,75.23
2022-08-14T03:17:56.572Z,75.10
2022-08-14T03:20:29.012Z,75.48
2022-08-14T03:23:03.280Z,74.88
2022-08-14T03:25:37.701Z,75.15
2022-08-14T03:28:14.746Z,75.26
2022-08-14T03:31:04.544Z,75.06
2022-08-14T03:33:51.770Z,75.17
2022-08-14T03:37:39.128Z,75.41
2022-08-14T03:39:30.701Z,75.55
2022-08-14T03:42:01.822Z,75.61
2022-08-14T03:45:19.754Z,75.49
2022-08-14T03:47:55.868Z,75.45
2022-08-14T03:50:31.627Z,75.51
2022-08-14T03:53:05.142Z,75.88
2022-08-14T03:55:36.699Z,75.98
2022-08-14T03:58:12.998Z,76.18
2022-08-14T04:00:56.083Z,76.43
2022-08-14T04:03:27.115Z,76.68
2022-08-14T04:06:02.059Z,76.82
2022-08-14T04:08:34.942Z,76.57
2022-08-14T04:11:08.014Z,76.36
2022-08-14T04:13:42.559Z,76.71
2022-08-14T04:16:20.354Z,76.82
2022-08-14T04:18:55.250Z,77.63
2022-08-14T04:21:39.854Z,77.01
2022-08-14T04:24:23.939Z,77.77
2022-08-14T04:27:00.097Z,77.56
2022-08-14T04:29:36.974Z,77.36
2022-08-14T04:33:10.489Z,77.33
2022-08-14T04:35:07.788Z,77.78
2022-08-14T04:37:58.231Z,77.67
2022-08-14T04:40:55.466Z,78.46
2022-08-14T04:43:39.615Z,78.01
2022-08-14T04:46:09.344Z,78.21
2022-08-14T04:48:43.714Z,78.72
2022-08-14T04:51:46.222Z,78.32
2022-08-14T04:54:14.110Z,78.60
2022-08-14T04:56:46.443Z,78.68
2022-08-14T04:59:18.589Z,78.52
2022-08-14T05:01:57.151Z,78.37
2022-08-14T05:04:39.802Z,78.86
2022-08-14T05:07:15.172Z,78.68
2022-08-14T05:09:47.783Z,78.78
2022-08-14T05:13:13.449Z,78.83
2022-08-14T05:15:10.563Z,78.80
2022-08-14T05:17:58.691Z,79.10
2022-08-14T05:21:58.022Z,79.85
2022-08-14T05:23:22.905Z,81.01
2022-08-14T05:25:56.741Z,82.26
2022-08-14T05:28:28.627Z,82.78
2022-08-14T05:31:01.966Z,84.90
2022-08-14T05:33:34.290Z,84.16
2022-08-14T05:36:16.428Z,84.71
2022-08-14T05:38:50.303Z,83.69
2022-08-14T05:41:51.026Z,85.03
2022-08-14T05:44:16.253Z,86.93
2022-08-14T05:46:43.034Z,85.68
2022-08-14T05:49:14.485Z,87.09
2022-08-14T05:51:41.838Z,86.60
2022-08-14T05:54:25.364Z,86.10
2022-08-14T05:56:55.800Z,85.38
2022-08-14T05:59:36.758Z,85.22
2022-08-14T06:02:21.811Z,85.74
2022-08-14T06:04:51.196Z,85.75
2022-08-14T06:07:23.264Z,85.97
2022-08-14T06:10:00.298Z,85.50
2022-08-14T06:12:56.648Z,85.08
2022-08-14T06:15:36.116Z,85.67
2022-08-14T06:18:17.688Z,85.18
2022-08-14T06:20:48.129Z,84.93
2022-08-14T06:23:20.299Z,84.74
2022-08-14T06:25:52.857Z,85.35
2022-08-14T06:28:28.630Z,85.33
2022-08-14T06:31:06.711Z,85.13
2022-08-14T06:35:01.317Z,84.79
2022-08-14T06:36:38.102Z,84.87
2022-08-14T06:39:14.903Z,84.25
2022-08-14T06:41:59.421Z,83.79
2022-08-14T06:44:33.367Z,83.38
2022-08-14T06:47:10.016Z,84.32
2022-08-14T06:49:44.252Z,83.69
2022-08-14T06:52:20.312Z,83.80
2022-08-14T06:55:02.905Z,83.26
2022-08-14T06:58:04.461Z,82.40
2022-08-14T07:01:06.676Z,82.59
2022-08-14T07:04:03.785Z,82.27
2022-08-14T07:06:46.568Z,82.41
2022-08-14T07:12:05.334Z,79.75
2022-08-14T07:14:42.717Z,81.57
2022-08-14T07:17:09.472Z,77.75
2022-08-14T07:19:40.025Z,78.10
2022-08-14T07:22:17.766Z,76.66
2022-08-14T07:24:55.433Z,74.17
2022-08-14T07:27:33.466Z,72.90
2022-08-14T07:30:05.365Z,73.95
2022-08-14T07:32:42.323Z,74.50
2022-08-14T07:35:12.088Z,72.00
2022-08-14T07:37:42.305Z,70.10
2022-08-14T07:40:12.983Z,70.27
2022-08-14T07:42:51.203Z,69.34
2022-08-14T07:45:25.463Z,70.83
2022-08-14T07:48:06.315Z,68.59
2022-08-14T07:50:39.473Z,67.85
2022-08-14T07:53:12.924Z,68.15
2022-08-14T07:55:45.499Z,69.55
2022-08-14T07:58:38.931Z,69.73
2022-08-14T08:01:27.569Z,70.06
2022-08-14T08:04:03.330Z,67.82
2022-08-14T08:06:35.156Z,66.74
2022-08-14T08:09:05.852Z,65.82
2022-08-14T08:11:37.284Z,67.02
2022-08-14T08:14:10.752Z,65.35
2022-08-14T08:16:46.286Z,63.62
2022-08-14T08:19:14.388Z,63.49
2022-08-14T08:21:45.668Z,64.33
2022-08-14T08:24:22.914Z,63.07
2022-08-14T08:26:51.964Z,62.05
2022-08-14T08:29:40.356Z,61.79
2022-08-14T08:32:17.133Z,60.34
2022-08-14T08:34:48.555Z,62.42
2022-08-14T08:37:16.003Z,63.23
2022-08-14T08:40:03.387Z,60.07
2022-08-14T08:42:38.170Z,61.03
2022-08-14T08:45:11.811Z,63.16
2022-08-14T08:47:40.381Z,61.62
2022-08-14T08:50:22.994Z,61.90
2022-08-14T08:52:51.633Z,61.50
2022-08-14T08:55:37.657Z,61.34
2022-08-14T08:58:20.327Z,58.81
2022-08-14T09:00:56.570Z,62.14
2022-08-14T09:03:27.590Z,60.90
2022-08-14T09:05:56.170Z,59.24
2022-08-14T09:08:32.743Z,58.25
2022-08-14T09:11:19.486Z,57.81
2022-08-14T09:13:52.106Z,55.74
2022-08-14T09:16:24.872Z,55.03
2022-08-14T09:18:53.187Z,56.21
2022-08-14T09:21:20.973Z,54.34
2022-08-14T09:24:29.600Z,55.29
2022-08-14T09:26:39.633Z,55.52
2022-08-14T09:29:06.802Z,52.93
2022-08-14T09:31:42.584Z,53.11
2022-08-14T09:34:34.620Z,51.36
2022-08-14T09:37:18.947Z,54.04
2022-08-14T09:40:10.023Z,53.33
2022-08-14T09:42:51.213Z,52.87
2022-08-14T09:45:30.525Z,52.65
2022-08-14T09:48:18.945Z,50.32
2022-08-14T09:50:56.054Z,51.65
2022-08-14T09:54:12.765Z,50.47
2022-08-14T09:56:30.505Z,51.33
2022-08-14T09:58:59.229Z,51.18
2022-08-14T10:01:35.275Z,48.99
2022-08-14T10:04:06.962Z,50.06
2022-08-14T10:06:53.514Z,46.52
2022-08-14T10:09:20.333Z,47.05
2022-08-14T10:11:59.048Z,49.43
2022-08-14T10:14:34.887Z,47.94
2022-08-14T10:17:06.069Z,48.98
2022-08-14T10:19:35.523Z,47.24
2022-08-14T10:23:14.343Z,47.38
2022-08-14T10:25:10.341Z,47.92
2022-08-14T10:27:36.815Z,46.24
2022-08-14T10:30:04.720Z,46.27
2022-08-14T10:32:49.821Z,47.35
2022-08-14T10:35:20.235Z,45.62
2022-08-14T10:37:51.170Z,42.95
2022-08-14T10:40:36.989Z,42.84
2022-08-14T10:43:31.825Z,44.61
2022-08-14T10:46:58.963Z,43.74
2022-08-14T10:49:03.952Z,44.10
2022-08-14T10:51:34.295Z,44.77
2022-08-14T10:54:26.326Z,42.17
2022-08-14T10:56:57.315Z,40.34
2022-08-14T10:59:30.823Z,43.65
2022-08-14T11:01:59.880Z,43.25
2022-08-14T11:04:30.858Z,43.99
2022-08-14T11:06:58.525Z,43.60
2022-08-14T11:09:26.578Z,43.12
2022-08-14T11:12:34.983Z,42.31
2022-08-14T11:15:02.664Z,42.23
2022-08-14T11:17:32.386Z,41.14
2022-08-14T11:20:00.985Z,41.51
2022-08-14T11:22:52.306Z,41.69
2022-08-14T11:25:21.246Z,40.56
2022-08-14T11:27:49.174Z,41.74
2022-08-14T11:30:49.039Z,40.72
2022-08-14T11:33:09.386Z,41.49
2022-08-14T11:35:47.883Z,40.32
2022-08-14T11:38:18.688Z,40.47
2022-08-14T11:40:47.110Z,39.78
2022-08-14T11:43:18.086Z,40.44
2022-08-14T11:45:52.105Z,38.56
2022-08-14T11:48:59.103Z,38.97
2022-08-14T11:51:24.047Z,38.64
2022-08-14T11:53:53.993Z,38.52
2022-08-14T11:56:25.350Z,37.67
2022-08-14T11:58:53.977Z,37.80
2022-08-14T12:01:29.117Z,38.79
2022-08-14T12:04:31.779Z,36.39
2022-08-14T12:06:58.954Z,37.23
2022-08-14T12:09:30.769Z,37.76
2022-08-14T12:11:59.600Z,37.37
2022-08-14T12:14:35.509Z,38.59
2022-08-14T12:17:12.187Z,36.77
2022-08-14T12:20:06.825Z,36.60
2022-08-14T12:22:44.197Z,36.01
2022-08-14T12:25:19.214Z,35.63
2022-08-14T12:27:53.404Z,36.91
2022-08-14T12:30:39.339Z,36.73
2022-08-14T12:33:19.057Z,36.65
2022-08-14T12:35:46.179Z,37.51
2022-08-14T12:38:19.504Z,36.80
2022-08-14T12:40:56.133Z,37.06
2022-08-14T12:43:22.858Z,36.37
2022-08-14T12:45:52.289Z,37.11
2022-08-14T12:48:21.423Z,35.17
2022-08-14T12:50:58.101Z,35.08
2022-08-14T12:53:38.380Z,35.22
2022-08-14T12:56:21.538Z,35.18
2022-08-14T12:58:51.863Z,35.05
2022-08-14T13:01:24.821Z,34.47
2022-08-14T13:04:10.449Z,35.03
2022-08-14T13:06:44.191Z,34.80
2022-08-14T13:09:13.238Z,35.45
2022-08-14T13:11:45.106Z,35.36
2022-08-14T13:14:17.975Z,34.42
2022-08-14T13:16:45.631Z,33.92
2022-08-14T13:19:18.409Z,34.38
2022-08-14T13:21:58.457Z,34.59
2022-08-14T13:24:34.904Z,33.85
2022-08-14T13:27:04.377Z,33.66
2022-08-14T13:29:33.699Z,33.34
2022-08-14T13:32:00.880Z,33.88
2022-08-14T13:34:28.937Z,33.79
2022-08-14T13:37:04.070Z,34.03
2022-08-14T13:39:36.226Z,33.91
2022-08-14T13:42:13.879Z,33.29
2022-08-14T13:44:42.757Z,34.15
2022-08-14T13:47:10.277Z,34.03
2022-08-14T13:49:40.153Z,35.04
2022-08-14T13:52:48.206Z,35.38
2022-08-14T13:55:04.259Z,36.67
2022-08-14T13:57:32.810Z,34.44
2022-08-14T14:00:07.041Z,34.64
2022-08-14T14:02:35.638Z,36.05
2022-08-14T14:05:04.221Z,35.58
2022-08-14T14:07:32.128Z,34.40
2022-08-14T14:10:06.218Z,35.10
2022-08-14T14:12:41.389Z,36.59
2022-08-14T14:15:11.807Z,35.93
2022-08-14T14:17:39.702Z,35.87
2022-08-14T14:20:34.038Z,36.70
2022-08-14T14:23:03.412Z,38.41
2022-08-14T14:25:46.507Z,37.80
2022-08-14T14:28:16.908Z,36.20
2022-08-14T14:30:54.619Z,35.91
2022-08-14T14:33:45.306Z,36.48
2022-08-14T14:36:13.964Z,36.41
2022-08-14T14:38:44.240Z,36.08
2022-08-14T14:41:14.783Z,34.79
2022-08-14T14:43:45.398Z,35.63
2022-08-14T14:46:16.463Z,34.45
2022-08-14T14:48:46.463Z,36.24
2022-08-14T14:51:14.640Z,35.14
2022-08-14T14:53:43.080Z,35.78
2022-08-14T14:56:51.156Z,34.65
2022-08-14T14:58:57.659Z,37.98
2022-08-14T15:01:25.340Z,38.49
2022-08-14T15:03:54.088Z,36.47
2022-08-14T15:06:22.648Z,38.19
2022-08-14T15:08:58.338Z,37.19
2022-08-14T15:11:30.407Z,35.79
2022-08-14T15:13:58.981Z,37.72
2022-08-14T15:16:27.487Z,36.21
2022-08-14T15:18:54.034Z,38.15
2022-08-14T15:21:20.540Z,37.17
2022-08-14T15:23:48.136Z,34.18
2022-08-14T15:26:24.069Z,33.97
2022-08-14T15:29:05.034Z,36.51
2022-08-14T15:31:34.912Z,33.68
2022-08-14T15:34:46.111Z,34.98
2022-08-14T15:36:58.857Z,33.91
2022-08-14T15:39:29.404Z,36.45
2022-08-14T15:42:02.196Z,36.10
2022-08-14T15:44:36.546Z,35.84
2022-08-14T15:47:10.918Z,34.97
2022-08-14T15:49:39.749Z,35.50
2022-08-14T15:52:07.200Z,35.40
2022-08-14T15:54:34.996Z,36.55
2022-08-14T15:57:09.804Z,37.45
2022-08-14T15:59:57.010Z,37.77
2022-08-14T16:02:27.949Z,36.52
2022-08-14T16:04:55.478Z,37.38
2022-08-14T16:07:25.306Z,37.46
2022-08-14T16:10:11.845Z,36.93
2022-08-14T16:12:45.974Z,36.72
2022-08-14T16:15:15.910Z,36.24
2022-08-14T16:17:44.797Z,36.44
2022-08-14T16:20:12.640Z,35.58
2022-08-14T16:23:00.564Z,35.40
2022-08-14T16:25:34.560Z,35.90
2022-08-14T16:28:03.443Z,37.07
2022-08-14T16:30:35.467Z,38.02
2022-08-14T16:33:04.647Z,39.28
2022-08-14T16:35:43.186Z,39.32
2022-08-14T16:38:46.435Z,40.24
2022-08-14T16:41:21.984Z,37.90
2022-08-14T16:43:59.283Z,39.00
2022-08-14T16:46:27.256Z,40.68
2022-08-14T16:48:58.180Z,40.18
2022-08-14T16:51:25.649Z,40.35
2022-08-14T16:53:55.704Z,40.75
2022-08-14T16:56:25.524Z,40.90
2022-08-14T16:59:06.751Z,41.00
2022-08-14T17:01:35.999Z,40.52
2022-08-14T17:04:09.295Z,41.37
2022-08-14T17:06:55.044Z,41.48
2022-08-14T17:09:43.447Z,41.92
2022-08-14T17:12:29.084Z,41.92
2022-08-14T17:15:11.227Z,41.82
2022-08-14T17:17:43.634Z,42.33
2022-08-14T17:21:00.438Z,42.27
2022-08-14T17:23:11.088Z,42.25
2022-08-14T17:25:50.736Z,42.44
2022-08-14T17:28:49.996Z,42.99
2022-08-14T17:31:12.816Z,43.71
2022-08-14T17:33:52.510Z,44.06
2022-08-14T17:36:24.578Z,44.32
2022-08-14T17:39:09.239Z,44.18
2022-08-14T17:41:43.342Z,44.38
2022-08-14T17:44:12.318Z,44.78
2022-08-14T17:46:50.129Z,45.40
2022-08-14T17:49:28.242Z,45.58
2022-08-14T17:52:07.357Z,45.41
2022-08-14T17:54:45.342Z,45.64
2022-08-14T17:57:18.085Z,45.48
2022-08-14T17:59:48.193Z,45.41
2022-08-14T18:02:16.758Z,45.38
2022-08-14T18:04:46.978Z,45.42
2022-08-14T18:08:30.984Z,45.37
2022-08-14T18:10:52.957Z,45.97
2022-08-14T18:12:56.647Z,46.19
2022-08-14T18:15:23.240Z,46.04
2022-08-14T18:18:08.913Z,46.14
2022-08-14T18:23:14.555Z,46.24
2022-08-14T18:25:47.352Z,46.31
2022-08-14T18:28:18.220Z,46.52
2022-08-14T18:31:20.668Z,46.85
2022-08-14T18:33:58.783Z,46.41
2022-08-14T18:36:55.377Z,46.44
2022-08-14T18:39:29.518Z,46.75
2022-08-14T18:42:23.202Z,47.00
2022-08-14T18:44:50.664Z,47.29
2022-08-14T18:47:21.200Z,47.34
2022-08-14T18:50:27.274Z,47.11
2022-08-14T18:52:53.219Z,47.47
2022-08-14T18:55:20.683Z,47.22
2022-08-14T18:58:27.714Z,47.40
2022-08-14T19:00:55.913Z,47.56
2022-08-14T19:03:33.941Z,47.31
2022-08-14T19:06:05.972Z,47.21
2022-08-14T19:08:38.491Z,47.60
2022-08-14T19:11:06.904Z,47.64
2022-08-14T19:13:48.546Z,47.53
2022-08-14T19:16:23.765Z,47.83
2022-08-14T19:19:00.017Z,48.01
2022-08-14T19:21:36.070Z,47.94
2022-08-14T19:24:27.585Z,47.88
2022-08-14T19:27:23.655Z,47.70
2022-08-14T19:29:51.987Z,47.50
2022-08-14T19:32:40.776Z,47.70
2022-08-14T19:35:19.443Z,47.78
2022-08-14T19:37:57.050Z,47.84
2022-08-14T19:40:39.921Z,48.08
2022-08-14T19:43:09.346Z,48.20
2022-08-14T19:45:37.715Z,48.52
2022-08-14T19:48:09.952Z,48.54
2022-08-14T19:50:41.298Z,48.45
2022-08-14T19:53:17.426Z,48.19
2022-08-14T19:55:54.868Z,47.93
2022-08-14T19:58:27.967Z,47.92
2022-08-14T20:00:57.004Z,47.99
2022-08-14T20:03:24.831Z,48.19
2022-08-14T20:06:00.599Z,47.65
2022-08-14T20:11:01.102Z,47.88
2022-08-14T20:12:02.093Z,47.43
2022-08-14T20:14:29.409Z,47.87
2022-08-14T20:17:03.222Z,48.34
2022-08-14T20:19:37.996Z,48.55
2022-08-14T20:22:37.426Z,48.49
2022-08-14T20:24:55.234Z,48.81
2022-08-14T20:27:33.690Z,49.09
2022-08-14T20:30:29.009Z,48.83
2022-08-14T20:33:01.767Z,49.04
2022-08-14T20:35:52.227Z,49.36
2022-08-14T20:38:29.307Z,49.06
2022-08-14T20:41:10.818Z,49.60
2022-08-14T20:43:59.492Z,49.69
2022-08-14T20:46:29.384Z,49.60
2022-08-14T20:49:02.344Z,50.13
2022-08-14T20:51:43.405Z,49.96
2022-08-14T20:54:34.170Z,50.06
2022-08-14T20:57:15.575Z,50.09
2022-08-14T20:59:53.257Z,49.97
2022-08-14T21:02:34.703Z,50.04
2022-08-14T21:05:17.253Z,50.34
2022-08-14T21:07:51.344Z,49.93
2022-08-14T21:10:33.717Z,50.04
2022-08-14T21:13:26.288Z,49.82
2022-08-14T21:15:57.844Z,49.75
2022-08-14T21:18:47.361Z,50.08
2022-08-14T21:21:18.725Z,50.47
2022-08-14T21:23:55.475Z,50.45
2022-08-14T21:26:50.582Z,51.21
2022-08-14T21:29:13.455Z,51.40
2022-08-14T21:31:40.759Z,51.48
2022-08-14T21:34:31.143Z,51.60
2022-08-14T21:36:55.962Z,51.67
2022-08-14T21:39:24.032Z,52.03
2022-08-14T21:41:58.645Z,51.96
2022-08-14T21:44:42.896Z,52.03
2022-08-14T21:47:12.090Z,52.09
2022-08-14T21:49:40.217Z,52.11
2022-08-14T21:52:49.559Z,52.17
2022-08-14T21:55:08.890Z,52.13
2022-08-14T21:57:56.574Z,52.21
2022-08-14T22:00:35.607Z,52.50
2022-08-14T22:03:08.904Z,52.64
2022-08-14T22:05:38.383Z,52.65
2022-08-14T22:08:06.569Z,52.65
2022-08-14T22:10:34.892Z,52.49
2022-08-14T22:13:01.999Z,52.29
2022-08-14T22:15:30.123Z,52.78
2022-08-14T22:17:58.315Z,52.34
2022-08-14T22:20:28.288Z,52.50
2022-08-14T22:22:56.855Z,52.32
2022-08-14T22:25:32.908Z,52.55
2022-08-14T22:28:01.290Z,52.34
2022-08-14T22:30:27.825Z,52.70
2022-08-14T22:32:57.571Z,52.34
2022-08-14T22:35:25.416Z,52.60
2022-08-14T22:38:01.623Z,52.32
2022-08-14T22:41:02.733Z,52.52
2022-08-14T22:43:31.199Z,52.70
2022-08-14T22:45:58.323Z,52.81
2022-08-14T22:48:29.594Z,52.68
2022-08-14T22:50:56.249Z,51.90
2022-08-14T22:53:23.858Z,52.01
2022-08-14T22:55:55.709Z,51.88
2022-08-14T22:58:30.299Z,51.83
2022-08-14T23:01:00.132Z,52.44
2022-08-14T23:03:27.207Z,52.26
2022-08-14T23:05:55.340Z,53.04
2022-08-14T23:08:57.705Z,53.15
2022-08-14T23:11:10.406Z,53.59
2022-08-14T23:13:43.607Z,53.21
2022-08-14T23:16:20.461Z,53.55
2022-08-14T23:18:54.157Z,53.85
2022-08-14T23:21:24.414Z,53.82
2022-08-14T23:23:55.237Z,54.06
2022-08-14T23:26:48.614Z,54.26
2022-08-14T23:29:11.449Z,54.06
2022-08-14T23:31:39.368Z,53.96
2022-08-14T23:34:08.582Z,54.13
2022-08-14T23:36:53.505Z,54.32
2022-08-14T23:39:30.025Z,52.85
2022-08-14T23:41:57.518Z,55.46
2022-08-14T23:44:32.146Z,54.18
2022-08-14T23:47:05.445Z,54.30
2022-08-14T23:49:56.512Z,55.05
2022-08-14T23:52:51.016Z,55.70
2022-08-14T23:55:11.393Z,55.64
2022-08-14T23:57:43.791Z,55.55
